Time;durP1;ratioP1;P1;durP2;ratioP2;P2;SDS_P1;SDS_P2;PMS_P1;PMS_P2;Temp;Humidity;BMP_temperature;BMP_pressure;BME280_temperature;BME280_humidity;BME280_pressure;Samples;Min_cycle;Max_cycle;Signal;HPM_P1;HPM_P2
2021/11/09 00:00:17;;;;;;;41.45;28.48;;;256.10;2252.80;;;;;;5086162;28;20419;-82
2021/11/09 00:02:45;;;;;;;40.38;26.63;;;256.10;2252.80;;;;;;5088604;28;20013;-81
2021/11/09 00:05:14;;;;;;;37.53;28.00;;;256.10;2252.80;;;;;;5094099;28;20020;-84
2021/11/09 00:07:55;;;;;;;44.55;30.05;;;256.10;2252.80;;;;;;5089556;28;20019;-85
2021/11/09 00:10:21;;;;;;;40.50;28.55;;;256.20;2252.80;;;;;;5086790;28;20032;-83
2021/11/09 00:12:50;;;;;;;43.25;30.30;;;256.20;2252.80;;;;;;5083520;28;20032;-84
2021/11/09 00:15:19;;;;;;;42.08;28.35;;;256.20;2252.80;;;;;;5073677;28;20051;-82
2021/11/09 00:17:47;;;;;;;45.33;28.42;;;256.20;2252.80;;;;;;5093653;28;20036;-83
2021/11/09 00:20:15;;;;;;;44.83;31.30;;;256.10;2252.80;;;;;;5084039;28;20024;-82
2021/11/09 00:22:42;;;;;;;41.25;29.05;;;256.10;2252.80;;;;;;5073883;28;20032;-83
2021/11/09 00:25:10;;;;;;;48.78;29.95;;;256.10;2252.80;;;;;;5079460;28;20476;-85
2021/11/09 00:27:36;;;;;;;47.25;30.52;;;256.10;2252.80;;;;;;5092171;28;20415;-82
2021/11/09 00:30:03;;;;;;;48.72;32.22;;;256.10;2252.80;;;;;;5084466;28;20021;-82
2021/11/09 00:32:29;;;;;;;48.72;31.63;;;256.10;2252.80;;;;;;5085349;28;20085;-83
2021/11/09 00:34:55;;;;;;;52.85;30.42;;;256.10;2252.80;;;;;;5094152;28;20024;-82
2021/11/09 00:37:21;;;;;;;49.85;31.80;;;256.10;2252.80;;;;;;5092373;28;20432;-83
2021/11/09 00:39:48;;;;;;;47.28;31.08;;;256.10;2252.80;;;;;;5085781;28;20111;-82
2021/11/09 00:42:14;;;;;;;43.05;31.42;;;256.10;2252.80;;;;;;5082843;28;20032;-84
2021/11/09 00:44:42;;;;;;;47.45;33.65;;;256.10;2252.80;;;;;;5083936;28;20055;-84
2021/11/09 00:47:08;;;;;;;48.60;32.53;;;256.10;2252.80;;;;;;5079432;28;20142;-83
2021/11/09 00:49:34;;;;;;;51.88;33.90;;;256.10;2252.80;;;;;;5082692;28;20036;-83
2021/11/09 00:52:01;;;;;;;52.03;34.17;;;256.10;2252.80;;;;;;5083507;28;20033;-82
2021/11/09 00:54:28;;;;;;;47.25;32.55;;;256.10;2252.80;;;;;;5080834;28;20058;-81
2021/11/09 00:56:54;;;;;;;45.47;32.10;;;256.10;2252.80;;;;;;5076184;28;20023;-83
2021/11/09 00:59:20;;;;;;;46.80;31.27;;;256.10;2252.80;;;;;;5075536;28;20071;-85
2021/11/09 01:01:46;;;;;;;50.22;32.80;;;256.10;2252.80;;;;;;5093355;28;20067;-84
2021/11/09 01:04:12;;;;;;;47.42;33.00;;;256.10;2252.80;;;;;;5071570;28;20052;-84
2021/11/09 01:06:38;;;;;;;52.88;33.33;;;256.10;2252.80;;;;;;5071325;28;20036;-82
2021/11/09 01:09:06;;;;;;;44.60;30.30;;;256.10;2252.80;;;;;;5082827;28;20028;-84
2021/11/09 01:11:33;;;;;;;47.40;31.05;;;256.00;2252.80;;;;;;5093037;28;20051;-85
2021/11/09 01:14:00;;;;;;;48.35;31.58;;;256.00;2252.80;;;;;;5092662;28;20032;-85
2021/11/09 01:16:26;;;;;;;48.17;31.52;;;256.00;2252.80;;;;;;5093866;28;20089;-85
2021/11/09 01:18:55;;;;;;;46.80;29.80;;;256.00;2252.80;;;;;;5094155;28;20036;-86
2021/11/09 01:21:23;;;;;;;47.15;31.40;;;256.10;2252.80;;;;;;5094011;28;20578;-85
2021/11/09 01:23:54;;;;;;;50.42;30.27;;;256.00;2252.80;;;;;;5093657;28;20032;-84
2021/11/09 01:26:21;;;;;;;48.63;30.70;;;256.00;2252.80;;;;;;5093993;28;20016;-86
2021/11/09 01:28:50;;;;;;;49.28;32.97;;;256.00;2252.80;;;;;;5093768;28;20024;-84
2021/11/09 01:31:16;;;;;;;49.13;33.05;;;256.00;2252.80;;;;;;5093501;28;20075;-84
2021/11/09 01:33:43;;;;;;;49.05;31.30;;;256.00;2252.80;;;;;;5093643;28;20075;-84
2021/11/09 01:36:09;;;;;;;47.33;30.30;;;256.00;2252.80;;;;;;5093349;28;20032;-83
2021/11/09 01:38:36;;;;;;;49.35;30.70;;;256.00;2252.80;;;;;;5092538;28;20548;-84
2021/11/09 01:41:02;;;;;;;42.95;29.08;;;256.00;2252.80;;;;;;5093551;28;20032;-84
2021/11/09 01:43:29;;;;;;;46.25;30.63;;;256.00;2252.80;;;;;;5094956;28;20052;-84
2021/11/09 01:45:59;;;;;;;45.63;30.42;;;256.10;2252.80;;;;;;5092703;28;20024;-84
2021/11/09 01:48:25;;;;;;;44.05;29.33;;;256.00;2252.80;;;;;;5093438;28;20077;-84
2021/11/09 01:50:59;;;;;;;45.63;29.65;;;256.00;2252.80;;;;;;5074628;28;20056;-83
2021/11/09 01:53:27;;;;;;;44.28;28.92;;;231.30;2252.80;;;;;;5056203;28;20393;-83
2021/11/09 01:55:54;;;;;;;47.83;29.83;;;231.30;2252.80;;;;;;5073897;28;20056;-82
2021/11/09 01:58:20;;;;;;;44.05;30.98;;;231.30;2252.80;;;;;;5054872;28;20029;-83
2021/11/09 02:01:01;;;;;;;54.35;34.45;;;231.30;2252.80;;;;;;5056037;28;20036;-85
2021/11/09 02:03:28;;;;;;;49.42;32.35;;;231.30;2252.80;;;;;;5059968;28;20028;-85
2021/11/09 02:05:54;;;;;;;49.35;32.38;;;231.20;2252.80;;;;;;5072046;28;20025;-85
2021/11/09 02:08:21;;;;;;;48.35;31.08;;;231.30;2252.80;;;;;;5065841;28;20381;-84
2021/11/09 02:10:47;;;;;;;43.92;28.00;;;231.30;2252.80;;;;;;5072154;28;20024;-84
2021/11/09 02:13:14;;;;;;;48.20;28.05;;;231.20;2252.80;;;;;;5072136;28;20542;-84
2021/11/09 02:15:41;;;;;;;42.90;29.77;;;231.20;2252.80;;;;;;5088645;28;20095;-86
2021/11/09 02:18:10;;;;;;;41.75;27.63;;;231.20;2252.80;;;;;;5093298;28;20508;-85
2021/11/09 02:20:37;;;;;;;40.30;27.67;;;231.20;2252.80;;;;;;5094126;28;20095;-85
2021/11/09 02:23:05;;;;;;;43.10;27.45;;;231.20;2252.80;;;;;;5075434;28;20036;-84
2021/11/09 02:25:32;;;;;;;47.50;28.48;;;231.20;2252.80;;;;;;5075965;28;20070;-84
2021/11/09 02:28:01;;;;;;;42.40;27.52;;;231.20;2252.80;;;;;;5070198;28;20033;-84
2021/11/09 02:30:29;;;;;;;38.20;26.25;;;231.20;2252.80;;;;;;5083421;28;20036;-84
2021/11/09 02:32:58;;;;;;;39.45;26.85;;;231.20;2252.80;;;;;;5088502;28;20040;-83
2021/11/09 02:35:25;;;;;;;43.75;27.13;;;231.20;2252.80;;;;;;5089058;28;20493;-84
2021/11/09 02:37:52;;;;;;;40.03;27.00;;;231.20;2252.80;;;;;;5088305;28;20028;-83
2021/11/09 02:40:20;;;;;;;43.08;26.15;;;231.20;2252.80;;;;;;5088748;28;20020;-82
2021/11/09 02:42:50;;;;;;;41.50;25.42;;;231.20;2252.80;;;;;;5073028;28;20465;-82
2021/11/09 02:45:25;;;;;;;39.25;27.02;;;231.20;2252.80;;;;;;5087371;28;20513;-82
2021/11/09 02:47:58;;;;;;;35.30;24.85;;;231.30;2252.80;;;;;;5073038;28;20024;-83
2021/11/09 02:50:29;;;;;;;33.25;24.30;;;231.30;2252.80;;;;;;5072646;28;20020;-82
2021/11/09 02:52:59;;;;;;;38.35;23.83;;;231.30;2252.80;;;;;;5071983;28;20060;-83
2021/11/09 02:55:33;;;;;;;37.92;24.60;;;231.30;2252.80;;;;;;5071944;28;20028;-83
2021/11/09 03:00:41;;;;;;;34.42;22.23;;;231.20;2252.80;;;;;;5073219;28;20020;-84
2021/11/09 03:03:14;;;;;;;34.30;23.38;;;231.20;2252.80;;;;;;5088282;28;20020;-83
2021/11/09 03:10:49;;;;;;;36.72;25.35;;;231.20;2252.80;;;;;;5072776;28;20034;-83
2021/11/09 03:13:15;;;;;;;36.75;24.88;;;231.20;2252.80;;;;;;5088678;28;20020;-83
2021/11/09 03:15:41;;;;;;;42.83;26.15;;;231.30;2252.80;;;;;;5070883;28;20048;-83
2021/11/09 03:18:13;;;;;;;37.75;24.98;;;231.30;2252.80;;;;;;5054315;28;20123;-82
2021/11/09 03:20:48;;;;;;;35.33;25.45;;;231.30;2252.80;;;;;;5054541;28;20390;-82
2021/11/09 03:45:22;;;;;;;42.75;25.55;;;231.10;2252.80;;;;;;5096431;28;20438;-81
2021/11/09 03:47:52;;;;;;;44.97;26.70;;;231.10;2252.80;;;;;;5096302;28;20047;-81
2021/11/09 03:50:20;;;;;;;41.30;25.98;;;231.10;2252.80;;;;;;5077957;28;20024;-81
2021/11/09 03:58:04;;;;;;;40.63;25.08;;;231.10;2252.80;;;;;;5095941;28;20430;-82
2021/11/09 04:05:45;;;;;;;35.38;25.60;;;231.10;2252.80;;;;;;5096017;28;20042;-82
2021/11/09 04:10:46;;;;;;;38.50;24.92;;;231.10;2252.80;;;;;;5091073;28;20500;-80
2021/11/09 04:18:23;;;;;;;38.80;25.70;;;231.00;2252.80;;;;;;5095758;28;20032;-82
2021/11/09 04:26:30;;;;;;;51.13;25.55;;;231.00;2252.80;;;;;;5116698;28;20027;-82
2021/11/09 05:09:44;;;;;;;35.13;25.88;;;231.00;2252.80;;;;;;5095817;28;20085;-86
2021/11/09 05:12:02;;;;;;;35.78;24.80;;;231.10;2252.80;;;;;;5093087;28;20035;-85
2021/11/09 05:14:29;;;;;;;41.45;27.98;;;231.10;2252.80;;;;;;5098070;28;20059;-86
2021/11/09 05:16:55;;;;;;;57.85;35.38;;;231.10;2252.80;;;;;;5115647;28;20036;-86
2021/11/09 05:19:21;;;;;;;54.30;33.92;;;231.10;2252.80;;;;;;5097792;28;20476;-85
2021/11/09 05:21:47;;;;;;;53.13;32.25;;;231.20;2252.80;;;;;;5097571;28;20020;-85
2021/11/09 05:24:12;;;;;;;62.03;37.75;;;231.30;2252.80;;;;;;5097380;28;20019;-85
2021/11/09 05:26:41;;;;;;;67.63;39.20;;;231.20;2252.80;;;;;;5097504;28;20020;-85
2021/11/09 05:29:07;;;;;;;57.85;34.13;;;231.20;2252.80;;;;;;5096543;28;20051;-85
2021/11/09 05:31:33;;;;;;;80.10;44.70;;;231.20;2252.80;;;;;;5097480;28;20027;-84
2021/11/09 05:34:00;;;;;;;97.75;55.28;;;231.20;2252.80;;;;;;5094459;28;20162;-84
2021/11/09 05:36:33;;;;;;;86.30;47.15;;;231.10;2252.80;;;;;;5076014;28;20028;-84
2021/11/09 05:39:08;;;;;;;83.68;47.88;;;231.00;2252.80;;;;;;5091249;28;20191;-82
2021/11/09 05:41:37;;;;;;;71.95;41.80;;;231.00;2252.80;;;;;;5093224;28;20108;-84
2021/11/09 05:44:04;;;;;;;67.50;39.95;;;231.00;2252.80;;;;;;5096097;28;20035;-83
2021/11/09 05:46:30;;;;;;;59.80;32.47;;;231.00;2252.80;;;;;;5096245;28;20476;-83
2021/11/09 05:48:56;;;;;;;65.72;40.15;;;231.10;2252.80;;;;;;5113404;28;20042;-85
2021/11/09 05:51:23;;;;;;;63.92;36.60;;;231.20;2252.80;;;;;;5114724;28;20024;-84
2021/11/09 05:53:48;;;;;;;47.65;30.73;;;231.10;2252.80;;;;;;5096777;28;20030;-84
2021/11/09 05:56:15;;;;;;;40.50;28.33;;;231.20;2252.80;;;;;;5096415;28;20024;-85
2021/11/09 05:58:41;;;;;;;36.88;26.05;;;231.20;2252.80;;;;;;5096796;28;20050;-84
2021/11/09 06:01:07;;;;;;;35.92;25.02;;;231.20;2252.80;;;;;;5114499;28;20380;-84
2021/11/09 06:03:32;;;;;;;33.55;22.88;;;231.30;2252.80;;;;;;5096265;28;20027;-83
2021/11/09 06:05:58;;;;;;;37.42;24.70;;;231.20;2252.80;;;;;;5096159;28;20123;-84
2021/11/09 06:08:24;;;;;;;42.33;24.15;;;231.20;2252.80;;;;;;5095616;28;20491;-84
2021/11/09 06:10:51;;;;;;;36.47;26.25;;;231.30;2252.80;;;;;;5096402;28;20036;-83
2021/11/09 06:13:17;;;;;;;31.75;24.13;;;231.30;2252.80;;;;;;5114296;28;20027;-86
2021/11/09 06:15:43;;;;;;;36.72;23.35;;;231.30;2252.80;;;;;;5096594;28;20047;-85
2021/11/09 06:18:09;;;;;;;36.63;24.08;;;256.00;2252.80;;;;;;5095353;28;20040;-86
2021/11/09 06:20:35;;;;;;;33.83;24.25;;;256.00;2252.80;;;;;;5096781;28;20624;-86
2021/11/09 06:23:01;;;;;;;33.95;23.35;;;256.00;2252.80;;;;;;5095340;28;20027;-86
2021/11/09 06:25:27;;;;;;;35.90;22.55;;;231.30;2252.80;;;;;;5096441;28;20027;-86
2021/11/09 06:27:54;;;;;;;31.58;22.92;;;231.30;2252.80;;;;;;5113672;28;20032;-86
2021/11/09 06:30:23;;;;;;;35.30;23.00;;;256.00;2252.80;;;;;;5096713;28;20088;-86
2021/11/09 06:32:49;;;;;;;38.95;23.33;;;256.00;2252.80;;;;;;5096353;28;20051;-84
2021/11/09 06:35:16;;;;;;;32.53;22.80;;;256.00;2252.80;;;;;;5114237;28;20496;-85
2021/11/09 06:37:42;;;;;;;31.90;21.95;;;256.00;2252.80;;;;;;5094820;28;20058;-85
2021/11/09 06:40:09;;;;;;;32.05;22.83;;;256.00;2252.80;;;;;;5095767;28;20383;-85
2021/11/09 06:42:36;;;;;;;31.38;22.52;;;256.00;2252.80;;;;;;5096168;28;20019;-85
2021/11/09 06:45:04;;;;;;;38.50;24.33;;;256.00;2252.80;;;;;;5095436;28;20061;-84
2021/11/09 06:47:30;;;;;;;33.55;21.90;;;256.00;2252.80;;;;;;5096299;28;20028;-84
2021/11/09 06:49:56;;;;;;;37.58;22.73;;;256.00;2252.80;;;;;;5095188;28;20035;-85
2021/11/09 06:52:22;;;;;;;32.53;22.10;;;256.00;2252.80;;;;;;5113611;28;20057;-82
2021/11/09 06:54:49;;;;;;;34.40;21.77;;;256.00;2252.80;;;;;;5113636;28;20020;-83
2021/11/09 06:57:15;;;;;;;29.35;21.17;;;256.00;2252.80;;;;;;5095379;28;20020;-83
2021/11/09 06:59:41;;;;;;;31.98;23.30;;;256.10;2252.80;;;;;;5095490;28;20038;-84
2021/11/09 07:02:07;;;;;;;37.85;23.42;;;256.10;2252.80;;;;;;5095867;28;20023;-85
2021/11/09 07:04:36;;;;;;;34.88;21.63;;;256.00;2252.80;;;;;;5095827;28;20777;-85
2021/11/09 07:07:03;;;;;;;37.08;22.60;;;256.00;2252.80;;;;;;5094824;28;20043;-85
2021/11/09 07:09:30;;;;;;;31.40;21.40;;;256.00;2252.80;;;;;;5095974;28;20034;-86
2021/11/09 07:11:55;;;;;;;34.40;23.17;;;256.00;2252.80;;;;;;5095595;28;20069;-86
2021/11/09 07:14:21;;;;;;;34.47;22.77;;;256.10;2252.80;;;;;;5092841;28;20032;-86
2021/11/09 07:16:47;;;;;;;37.25;23.45;;;256.10;2252.80;;;;;;5111313;28;20086;-86
2021/11/09 07:19:15;;;;;;;31.48;22.95;;;256.20;2252.80;;;;;;5112417;28;20119;-84
2021/11/09 07:21:42;;;;;;;31.73;22.45;;;256.10;2252.80;;;;;;5094999;28;20107;-84
2021/11/09 07:24:08;;;;;;;33.92;23.45;;;256.10;2252.80;;;;;;5110045;28;20028;-84
2021/11/09 07:26:34;;;;;;;32.72;22.98;;;256.10;2252.80;;;;;;5105557;28;20039;-83
2021/11/09 07:29:00;;;;;;;35.17;25.05;;;256.10;2252.80;;;;;;5079436;28;20126;-82
2021/11/09 07:31:27;;;;;;;41.97;26.15;;;256.10;2252.80;;;;;;5091349;28;20396;-81
2021/11/09 07:33:53;;;;;;;33.03;23.83;;;256.10;2252.80;;;;;;5089864;28;20039;-83
2021/11/09 07:36:20;;;;;;;35.80;24.58;;;256.10;2252.80;;;;;;5083342;28;20404;-82
2021/11/09 07:38:46;;;;;;;39.38;23.70;;;256.10;2252.80;;;;;;5087487;28;20149;-81
2021/11/09 07:41:12;;;;;;;40.10;24.80;;;256.20;2252.80;;;;;;5073456;28;20487;-82
2021/11/09 07:43:38;;;;;;;35.50;23.90;;;256.30;2252.80;;;;;;5074120;28;20365;-82
2021/11/09 07:46:04;;;;;;;29.10;22.00;;;256.30;2252.80;;;;;;5092018;28;20051;-82
2021/11/09 07:48:30;;;;;;;43.85;23.40;;;256.10;2252.80;;;;;;5080041;28;20500;-83
2021/11/09 07:50:56;;;;;;;30.67;22.92;;;256.10;2252.80;;;;;;5082595;28;20038;-82
2021/11/09 07:53:23;;;;;;;26.15;19.35;;;256.10;2252.80;;;;;;5105998;28;20054;-82
2021/11/09 07:58:29;;;;;;;32.20;22.38;;;256.00;2252.80;;;;;;5102115;28;20032;-82
2021/11/09 08:01:06;;;;;;;28.73;19.70;;;256.10;2252.80;;;;;;5085887;28;20020;-83
2021/11/09 08:03:37;;;;;;;29.15;19.08;;;256.20;2252.80;;;;;;5087442;28;20764;-83
2021/11/09 08:11:44;;;;;;;27.33;19.25;;;256.20;2252.80;;;;;;5043631;28;20037;-84
2021/11/09 08:14:11;;;;;;;31.10;20.80;;;256.20;2252.80;;;;;;5050427;28;20106;-84
2021/11/09 08:16:37;;;;;;;27.00;20.33;;;256.20;2252.80;;;;;;5036480;28;20040;-83
2021/11/09 08:19:04;;;;;;;28.77;20.60;;;256.20;2252.80;;;;;;5051655;28;20076;-84
2021/11/09 08:21:31;;;;;;;30.75;20.60;;;256.30;2252.80;;;;;;5053769;28;20040;-85
2021/11/09 08:23:57;;;;;;;29.83;18.73;;;256.50;2252.80;;;;;;5051026;28;20040;-85
2021/11/09 08:26:25;;;;;;;27.60;20.17;;;256.60;2252.80;;;;;;5050667;28;20033;-85
2021/11/09 08:28:53;;;;;;;26.58;17.88;;;256.60;2252.80;;;;;;5034104;28;20995;-85
2021/11/09 08:31:21;;;;;;;29.77;21.60;;;256.60;2252.80;;;;;;5023462;28;20094;-85
2021/11/09 08:33:48;;;;;;;29.65;16.92;;;256.60;2252.80;;;;;;5034649;28;20068;-85
2021/11/09 08:36:15;;;;;;;25.90;18.08;;;256.50;2252.80;;;;;;5032768;28;20502;-85
2021/11/09 08:38:42;;;;;;;28.08;19.92;;;256.50;2252.80;;;;;;5034572;28;20036;-85
2021/11/09 08:41:12;;;;;;;27.98;17.40;;;256.60;2252.80;;;;;;5050627;28;20109;-84
2021/11/09 08:43:41;;;;;;;28.63;18.67;;;256.70;2252.80;;;;;;5052113;28;20071;-85
2021/11/09 08:46:16;;;;;;;26.80;16.92;;;281.60;2278.40;;;;;;5030433;28;20485;-84
2021/11/09 08:48:47;;;;;;;27.15;17.00;;;281.70;2278.40;;;;;;5069245;28;20044;-86
2021/11/09 08:51:13;;;;;;;25.00;18.42;;;281.80;2278.40;;;;;;5085317;28;20051;-86
2021/11/09 08:53:43;;;;;;;33.10;20.38;;;281.80;2278.40;;;;;;5079872;28;20082;-88
2021/11/09 09:04:14;;;;;;;27.70;15.55;;;256.90;2252.80;;;;;;5082591;28;20041;-86
2021/11/09 09:06:40;;;;;;;22.42;14.43;;;256.90;2252.80;;;;;;5074080;28;20031;-86
2021/11/09 09:09:07;;;;;;;21.90;15.70;;;281.70;2278.40;;;;;;5086707;28;20040;-84
2021/11/09 09:11:34;;;;;;;22.60;15.93;;;281.70;2278.40;;;;;;5093033;28;20069;-90
2021/11/09 09:14:02;;;;;;;26.45;17.13;;;281.90;2278.40;;;;;;5082171;28;20044;-91
2021/11/09 09:16:30;;;;;;;22.13;14.88;;;281.90;2278.40;;;;;;5088173;28;20047;-90
2021/11/09 09:18:58;;;;;;;20.65;15.30;;;281.80;2278.40;;;;;;5069556;28;20032;-90
2021/11/09 09:21:48;;;;;;;20.35;15.48;;;281.80;2278.40;;;;;;5067458;28;20028;-90
2021/11/09 09:27:07;;;;;;;23.88;16.52;;;281.90;2278.40;;;;;;5090268;28;20023;-89
2021/11/09 09:57:13;;;;;;;16.77;11.77;;;384.20;2329.60;;;;;;5018415;28;20049;-87
2021/11/09 09:59:42;;;;;;;12.98;10.25;;;384.20;2329.60;;;;;;4998964;28;20026;-88
2021/11/09 10:02:13;;;;;;;18.52;10.07;;;384.30;2329.60;;;;;;5019190;28;20030;-88
2021/11/09 10:04:45;;;;;;;15.43;9.93;;;384.50;2329.60;;;;;;5032474;28;20052;-88
2021/11/09 10:07:13;;;;;;;18.33;11.88;;;384.20;2329.60;;;;;;5009876;28;20022;-88
2021/11/09 10:09:47;;;;;;;17.50;12.73;;;384.10;2329.60;;;;;;5057521;28;20035;-91
2021/11/09 10:12:34;;;;;;;18.73;11.77;;;359.30;2329.60;;;;;;5070697;28;20032;-88
2021/11/09 10:15:17;;;;;;;16.98;11.90;;;358.70;2329.60;;;;;;5064166;28;20045;-89
2021/11/09 10:17:46;;;;;;;17.90;11.30;;;384.20;2329.60;;;;;;5090675;28;20515;-88
2021/11/09 10:20:25;;;;;;;15.80;10.43;;;384.20;2329.60;;;;;;5087072;28;20024;-91
2021/11/09 10:22:54;;;;;;;16.52;11.43;;;409.60;2355.20;;;;;;5092303;28;20020;-94
2021/11/09 10:25:22;;;;;;;14.93;9.68;;;409.90;2355.20;;;;;;5093461;28;20506;-94
2021/11/09 10:27:52;;;;;;;14.85;9.77;;;410.40;2355.20;;;;;;5088385;28;20468;-95
2021/11/09 10:30:26;;;;;;;15.07;9.25;;;435.40;2355.20;;;;;;5092013;28;20408;-89
2021/11/09 10:32:53;;;;;;;13.27;9.15;;;435.60;2355.20;;;;;;5088092;28;20030;-87
2021/11/09 10:48:08;;;;;;;12.55;8.10;;;435.50;2355.20;;;;;;5147956;27;20378;-87
2021/11/09 10:50:46;;;;;;;12.00;8.38;;;461.30;2380.80;;;;;;5140642;27;20027;-89
2021/11/09 10:53:45;;;;;;;13.43;9.68;;;461.50;2380.80;;;;;;5133336;27;20027;-87
2021/11/09 10:56:50;;;;;;;12.68;9.38;;;461.70;2380.80;;;;;;5079736;28;20039;-87
2021/11/09 11:04:33;;;;;;;11.23;8.25;;;461.40;2380.80;;;;;;5078311;28;20103;-89
2021/11/09 11:07:07;;;;;;;18.35;10.50;;;460.80;2380.80;;;;;;5070898;28;20123;-88
2021/11/09 11:09:35;;;;;;;13.50;8.40;;;436.10;2355.20;;;;;;5083949;28;20137;-90
2021/11/09 11:12:09;;;;;;;12.77;8.88;;;435.20;2355.20;;;;;;5069596;28;20038;-88
2021/11/09 11:14:39;;;;;;;11.30;8.57;;;409.90;2355.20;;;;;;5066802;28;20040;-90
2021/11/09 11:17:11;;;;;;;16.30;9.73;;;384.60;2329.60;;;;;;5072054;28;20085;-89
2021/11/09 11:19:37;;;;;;;15.00;10.27;;;384.40;2329.60;;;;;;5070852;28;20158;-88
2021/11/09 11:22:11;;;;;;;19.30;10.55;;;435.40;2355.20;;;;;;5068397;28;20934;-88
2021/11/09 11:24:38;;;;;;;15.93;9.48;;;460.80;2380.80;;;;;;5087198;28;20021;-91
2021/11/09 11:27:06;;;;;;;10.50;7.85;;;435.50;2355.20;;;;;;5070743;28;20097;-90
2021/11/09 11:29:35;;;;;;;13.38;9.48;;;410.30;2355.20;;;;;;5065171;28;20445;-90
2021/11/09 11:32:02;;;;;;;16.63;14.07;;;410.10;2355.20;;;;;;5088427;27;20509;-91
2021/11/09 11:34:29;;;;;;;15.57;9.68;;;384.50;2329.60;;;;;;5149669;27;20038;-91
2021/11/09 11:36:56;;;;;;;16.75;8.90;;;409.60;2355.20;;;;;;5145452;27;20117;-90
2021/11/09 11:39:24;;;;;;;19.75;10.93;;;384.40;2329.60;;;;;;5147425;27;20024;-91
2021/11/09 11:41:58;;;;;;;15.60;9.02;;;410.50;2355.20;;;;;;5136302;27;20505;-91
2021/11/09 11:44:26;;;;;;;12.07;9.70;;;410.10;2355.20;;;;;;5138164;27;20041;-90
2021/11/09 11:47:03;;;;;;;17.88;11.30;;;384.70;2329.60;;;;;;5145181;27;20530;-88
2021/11/09 11:49:40;;;;;;;18.98;9.23;;;384.30;2329.60;;;;;;5120197;27;20031;-85
2021/11/09 11:52:16;;;;;;;11.98;7.82;;;384.20;2329.60;;;;;;5127323;27;20079;-87
2021/11/09 11:54:53;;;;;;;11.13;8.50;;;359.30;2329.60;;;;;;5130098;27;20029;-85
2021/11/09 11:57:50;;;;;;;14.85;9.10;;;359.20;2329.60;;;;;;5125287;27;20217;-86
2021/11/09 12:00:39;;;;;;;16.10;10.68;;;359.20;2329.60;;;;;;5136049;27;20051;-86
2021/11/09 12:03:18;;;;;;;16.08;9.27;;;358.80;2329.60;;;;;;5122422;27;20059;-85
2021/11/09 12:05:45;;;;;;;13.50;11.68;;;358.50;2329.60;;;;;;5128747;27;20055;-85
2021/11/09 12:08:14;;;;;;;19.45;11.10;;;358.50;2329.60;;;;;;5117064;27;20495;-86
2021/11/09 12:10:53;;;;;;;22.83;13.20;;;358.50;2329.60;;;;;;5129300;27;20514;-84
2021/11/09 12:13:23;;;;;;;15.80;12.73;;;358.50;2329.60;;;;;;5125406;27;20035;-85
2021/11/09 12:15:56;;;;;;;19.85;11.57;;;358.70;2329.60;;;;;;5124772;27;20049;-88
2021/11/09 12:18:27;;;;;;;17.27;10.02;;;358.90;2329.60;;;;;;5129002;27;20031;-84
2021/11/09 12:21:01;;;;;;;16.20;8.60;;;384.90;2329.60;;;;;;5128168;27;20451;-83
2021/11/09 12:23:31;;;;;;;18.83;9.50;;;410.10;2355.20;;;;;;5124083;27;20027;-82
2021/11/09 12:25:58;;;;;;;16.05;8.52;;;384.30;2329.60;;;;;;5123388;27;20028;-81
2021/11/09 12:28:35;;;;;;;16.40;9.55;;;384.80;2329.60;;;;;;5126981;27;20081;-82
2021/11/09 12:31:15;;;;;;;13.27;10.15;;;409.90;2355.20;;;;;;5120779;27;20023;-84
2021/11/09 12:33:46;;;;;;;12.88;8.60;;;435.20;2355.20;;;;;;5127050;27;20027;-79
2021/11/09 12:36:11;;;;;;;13.40;8.93;;;435.50;2355.20;;;;;;5119260;27;20055;-79
2021/11/09 12:38:43;;;;;;;13.32;9.85;;;435.90;2355.20;;;;;;5132616;27;20058;-80
2021/11/09 12:41:10;;;;;;;11.60;7.93;;;435.70;2355.20;;;;;;5122504;27;20023;-80
2021/11/09 12:43:54;;;;;;;21.80;9.35;;;435.80;2355.20;;;;;;5123976;27;20016;-79
2021/11/09 12:49:16;;;;;;;18.10;8.75;;;435.70;2355.20;;;;;;5125145;27;20023;-80
2021/11/09 12:51:46;;;;;;;14.40;8.18;;;435.60;2355.20;;;;;;5121563;27;20023;-78
2021/11/09 12:54:18;;;;;;;10.30;7.68;;;436.10;2355.20;;;;;;5124879;27;20034;-79
2021/11/09 12:56:45;;;;;;;13.63;7.78;;;435.30;2355.20;;;;;;5117405;27;20020;-78
2021/11/09 13:02:23;;;;;;;13.25;8.77;;;435.80;2355.20;;;;;;5124450;27;20102;-79
2021/11/09 13:09:40;;;;;;;12.50;7.68;;;435.70;2355.20;;;;;;5121717;27;20063;-78
2021/11/09 13:12:12;;;;;;;15.27;8.98;;;435.80;2355.20;;;;;;5121830;27;20498;-78
2021/11/09 13:14:47;;;;;;;13.13;8.98;;;436.10;2355.20;;;;;;5126683;27;20027;-78
2021/11/09 13:17:22;;;;;;;11.48;7.03;;;460.80;2380.80;;;;;;5116449;27;20035;-78
2021/11/09 13:19:58;;;;;;;18.35;10.32;;;435.70;2355.20;;;;;;5126797;27;20492;-79
2021/11/09 13:22:29;;;;;;;14.43;9.02;;;436.10;2355.20;;;;;;5123873;27;20028;-79
2021/11/09 13:25:05;;;;;;;9.95;7.35;;;435.80;2355.20;;;;;;5127689;27;20072;-78
2021/11/09 13:27:48;;;;;;;15.45;8.48;;;435.70;2355.20;;;;;;5121044;27;20533;-79
2021/11/09 13:30:20;;;;;;;12.77;7.72;;;435.50;2355.20;;;;;;5130123;27;20020;-79
2021/11/09 13:32:50;;;;;;;12.43;7.47;;;435.20;2355.20;;;;;;5120789;27;20364;-78
2021/11/09 13:35:32;;;;;;;12.15;6.80;;;410.30;2355.20;;;;;;5121700;27;20475;-79
2021/11/09 13:38:17;;;;;;;9.82;6.78;;;435.20;2355.20;;;;;;5119557;27;20024;-79
2021/11/09 13:40:55;;;;;;;9.85;7.10;;;410.40;2355.20;;;;;;5124422;27;20042;-79
2021/11/09 13:43:46;;;;;;;13.30;8.50;;;435.40;2355.20;;;;;;5121109;27;20015;-78
2021/11/09 13:46:14;;;;;;;11.00;7.55;;;410.30;2355.20;;;;;;5118827;27;20411;-78
2021/11/09 13:48:48;;;;;;;14.90;8.27;;;410.00;2355.20;;;;;;5122037;27;20093;-78
2021/11/09 13:51:16;;;;;;;12.38;9.02;;;410.10;2355.20;;;;;;5124241;27;20037;-79
2021/11/09 13:53:48;;;;;;;22.83;12.27;;;410.20;2355.20;;;;;;5122140;27;20015;-79
2021/11/09 13:56:15;;;;;;;22.13;13.88;;;410.20;2355.20;;;;;;5121326;27;20024;-79
2021/11/09 13:58:56;;;;;;;11.77;8.15;;;410.00;2355.20;;;;;;5120958;27;20012;-79
2021/11/09 14:02:00;;;;;;;11.73;7.35;;;409.90;2355.20;;;;;;5114819;27;20441;-78
2021/11/09 14:10:18;;;;;;;16.17;10.55;;;409.60;2355.20;;;;;;5128912;27;20191;-78
2021/11/09 14:12:56;;;;;;;18.92;10.55;;;384.80;2329.60;;;;;;5113629;27;20020;-78
2021/11/09 14:18:34;;;;;;;21.05;13.80;;;384.40;2329.60;;;;;;5122571;27;20023;-78
2021/11/09 14:21:05;;;;;;;23.35;13.50;;;384.40;2329.60;;;;;;5068833;28;20181;-79
2021/11/09 14:23:36;;;;;;;27.52;14.65;;;384.00;2329.60;;;;;;5045435;28;20513;-80
2021/11/09 14:26:22;;;;;;;15.45;10.70;;;359.10;2329.60;;;;;;5068773;28;20028;-84
2021/11/09 14:28:50;;;;;;;25.25;14.40;;;358.70;2329.60;;;;;;5043970;28;20021;-81
2021/11/09 14:31:31;;;;;;;24.33;14.93;;;358.60;2329.60;;;;;;5053229;28;20354;-83
2021/11/09 14:34:12;;;;;;;29.70;16.52;;;333.70;2329.60;;;;;;5049862;28;20164;-81
2021/11/09 14:36:39;;;;;;;26.95;16.52;;;333.60;2329.60;;;;;;5067055;28;20055;-81
2021/11/09 14:39:08;;;;;;;29.40;16.08;;;333.30;2329.60;;;;;;5063248;28;20025;-82
2021/11/09 14:41:39;;;;;;;21.23;13.75;;;333.20;2329.60;;;;;;5054243;28;20024;-81
2021/11/09 14:44:07;;;;;;;21.98;13.45;;;333.00;2329.60;;;;;;5049321;28;20404;-82
2021/11/09 14:46:41;;;;;;;15.55;12.75;;;332.80;2329.60;;;;;;5065802;28;20250;-82
2021/11/09 14:49:12;;;;;;;25.40;13.88;;;308.10;2304.00;;;;;;5051851;28;20527;-82
2021/11/09 14:51:46;;;;;;;27.15;16.05;;;307.90;2304.00;;;;;;5069095;28;20055;-82
2021/11/09 14:54:23;;;;;;;26.33;16.50;;;307.80;2304.00;;;;;;5018229;28;20052;-82
2021/11/09 14:56:49;;;;;;;30.55;18.27;;;307.70;2304.00;;;;;;5038952;28;20408;-81
2021/11/09 14:59:16;;;;;;;41.67;23.33;;;307.60;2304.00;;;;;;5108225;28;20016;-80
2021/11/09 15:01:58;;;;;;;46.53;30.92;;;307.50;2304.00;;;;;;5107933;28;20024;-81
2021/11/09 15:04:49;;;;;;;47.63;32.95;;;307.50;2304.00;;;;;;5100664;28;20035;-82
2021/11/09 15:07:21;;;;;;;66.68;37.15;;;307.40;2304.00;;;;;;5099681;28;20028;-81
2021/11/09 15:26:14;;;;;;;35.47;21.80;;;282.00;2278.40;;;;;;5106058;28;20038;-81
2021/11/09 15:29:45;;;;;;;40.33;26.52;;;281.90;2278.40;;;;;;5106480;28;20042;-81